createdAt,value
2018-01-27T00:00:18.558Z,54.07
2018-01-27T00:02:44.730Z,54.10
2018-01-27T00:05:10.918Z,54.10
2018-01-27T00:07:37.141Z,54.04
2018-01-27T00:10:03.383Z,54.08
2018-01-27T00:12:29.631Z,54.01
2018-01-27T00:14:55.914Z,54.04
2018-01-27T00:17:22.097Z,54.00
2018-01-27T00:19:48.359Z,54.00
2018-01-27T00:22:14.607Z,53.98
2018-01-27T00:24:40.797Z,53.97
2018-01-27T00:27:07.041Z,53.95
2018-01-27T00:29:33.229Z,53.96
2018-01-27T00:31:59.390Z,53.99
2018-01-27T00:34:25.708Z,53.95
2018-01-27T00:36:51.906Z,53.90
2018-01-27T00:39:18.106Z,53.97
2018-01-27T00:41:44.694Z,54.00
2018-01-27T00:44:10.886Z,53.92
2018-01-27T00:46:37.306Z,53.90
2018-01-27T00:49:03.535Z,53.82
2018-01-27T00:51:29.708Z,53.84
2018-01-27T00:53:55.896Z,53.88
2018-01-27T00:56:22.398Z,53.85
2018-01-27T00:58:48.955Z,53.85
2018-01-27T01:01:15.144Z,53.80
2018-01-27T01:03:41.901Z,53.86
2018-01-27T01:06:08.106Z,53.86
2018-01-27T01:08:34.318Z,53.87
2018-01-27T01:11:00.554Z,53.87
2018-01-27T01:13:26.798Z,53.87
2018-01-27T01:15:53.014Z,53.87
2018-01-27T01:18:19.574Z,53.91
2018-01-27T01:20:45.788Z,53.84
2018-01-27T01:23:11.991Z,53.84
2018-01-27T01:25:38.207Z,53.82
2018-01-27T01:28:04.383Z,53.79
2018-01-27T01:30:30.673Z,53.85
2018-01-27T01:32:56.889Z,53.84
2018-01-27T01:35:23.402Z,53.83
2018-01-27T01:37:50.010Z,53.80
2018-01-27T01:40:16.201Z,53.81
2018-01-27T01:42:48.381Z,53.80
2018-01-27T01:45:14.641Z,53.79
2018-01-27T01:47:40.833Z,53.81
2018-01-27T01:50:07.117Z,53.80
2018-01-27T01:52:33.307Z,53.79
2018-01-27T01:54:59.488Z,53.78
2018-01-27T01:57:25.754Z,53.75
2018-01-27T01:59:51.954Z,53.78
2018-01-27T02:02:18.154Z,53.81
2018-01-27T02:04:44.359Z,53.72
2018-01-27T02:07:10.555Z,53.69
2018-01-27T02:09:36.778Z,53.66
2018-01-27T02:12:02.964Z,53.68
2018-01-27T02:14:29.170Z,53.66
2018-01-27T02:16:55.414Z,53.68
2018-01-27T02:19:21.694Z,53.68
2018-01-27T02:21:48.185Z,53.67
2018-01-27T02:24:15.644Z,53.71
2018-01-27T02:26:41.862Z,53.73
2018-01-27T02:29:08.416Z,53.74
2018-01-27T02:31:34.678Z,53.68
2018-01-27T02:34:00.894Z,53.68
2018-01-27T02:36:27.057Z,53.67
2018-01-27T02:38:53.261Z,53.57
2018-01-27T02:41:19.477Z,53.61
2018-01-27T02:43:45.735Z,53.62
2018-01-27T02:46:11.949Z,53.62
2018-01-27T02:48:38.184Z,53.63
2018-01-27T02:51:04.459Z,53.62
2018-01-27T02:53:30.655Z,53.58
2018-01-27T02:55:56.872Z,53.56
2018-01-27T02:58:23.100Z,53.52
2018-01-27T03:00:49.286Z,53.57
2018-01-27T03:03:15.502Z,53.56
2018-01-27T03:05:41.741Z,53.54
2018-01-27T03:08:07.934Z,53.55
2018-01-27T03:10:34.098Z,53.54
2018-01-27T03:13:00.314Z,53.56
2018-01-27T03:15:26.720Z,53.62
2018-01-27T03:17:52.897Z,53.63
2018-01-27T03:20:19.422Z,53.63
2018-01-27T03:22:45.588Z,53.59
2018-01-27T03:25:11.803Z,53.60
2018-01-27T03:27:37.982Z,53.61
2018-01-27T03:30:04.211Z,53.64
2018-01-27T03:32:30.689Z,53.61
2018-01-27T03:34:56.911Z,53.63
2018-01-27T03:37:23.086Z,53.62
2018-01-27T03:39:49.359Z,53.62
2018-01-27T03:42:15.555Z,53.65
2018-01-27T03:44:41.757Z,53.62
2018-01-27T03:47:08.065Z,53.56
2018-01-27T03:49:34.253Z,53.55
2018-01-27T03:52:00.777Z,53.55
2018-01-27T03:54:26.990Z,53.54
2018-01-27T03:56:53.214Z,53.51
2018-01-27T03:59:19.466Z,53.51
2018-01-27T04:01:45.892Z,53.49
2018-01-27T04:04:12.075Z,53.46
2018-01-27T04:06:38.660Z,53.46
2018-01-27T04:09:04.838Z,53.45
2018-01-27T04:11:31.223Z,53.44
2018-01-27T04:13:57.753Z,53.41
2018-01-27T04:16:23.930Z,53.40
2018-01-27T04:18:50.462Z,53.40
2018-01-27T04:21:16.642Z,53.40
2018-01-27T04:23:42.810Z,53.42
2018-01-27T04:26:09.074Z,53.49
2018-01-27T04:28:35.259Z,53.46
2018-01-27T04:31:01.479Z,53.46
2018-01-27T04:33:28.073Z,53.43
2018-01-27T04:35:54.258Z,53.45
2018-01-27T04:38:20.429Z,53.42
2018-01-27T04:40:46.673Z,53.40
2018-01-27T04:43:12.874Z,53.39
2018-01-27T04:45:39.101Z,53.35
2018-01-27T04:48:05.330Z,53.32
2018-01-27T04:50:31.542Z,53.33
2018-01-27T04:52:57.968Z,53.35
2018-01-27T04:55:24.196Z,53.35
2018-01-27T04:57:50.403Z,53.34
2018-01-27T05:00:16.647Z,53.35
2018-01-27T05:02:42.822Z,53.33
2018-01-27T05:05:09.286Z,53.30
2018-01-27T05:07:35.542Z,53.33
2018-01-27T05:10:01.718Z,53.33
2018-01-27T05:12:27.924Z,53.30
2018-01-27T05:14:54.143Z,53.32
2018-01-27T05:17:20.708Z,53.31
2018-01-27T05:19:46.930Z,53.28
2018-01-27T05:22:13.119Z,53.30
2018-01-27T05:24:39.337Z,53.27
2018-01-27T05:27:05.573Z,53.31
2018-01-27T05:29:32.031Z,53.30
2018-01-27T05:31:58.209Z,53.31
2018-01-27T05:34:24.508Z,53.30
2018-01-27T05:36:50.714Z,53.21
2018-01-27T05:39:16.978Z,53.15
2018-01-27T05:41:43.186Z,53.10
2018-01-27T05:44:09.358Z,53.11
2018-01-27T05:46:35.626Z,53.09
2018-01-27T05:49:01.838Z,53.07
2018-01-27T05:51:28.024Z,53.08
2018-01-27T05:53:54.540Z,53.09
2018-01-27T05:56:20.711Z,53.06
2018-01-27T05:58:46.943Z,53.08
2018-01-27T06:01:13.163Z,53.08
2018-01-27T06:03:39.350Z,53.09
2018-01-27T06:06:05.562Z,53.09
2018-01-27T06:08:32.019Z,53.13
2018-01-27T06:10:58.550Z,53.13
2018-01-27T06:13:25.140Z,53.21
2018-01-27T06:15:51.380Z,53.21
2018-01-27T06:18:17.614Z,53.23
2018-01-27T06:20:43.903Z,53.24
2018-01-27T06:23:10.435Z,53.22
2018-01-27T06:25:36.657Z,53.18
2018-01-27T06:28:03.163Z,53.18
2018-01-27T06:30:29.782Z,53.18
2018-01-27T06:32:55.980Z,53.16
2018-01-27T06:35:22.165Z,53.17
2018-01-27T06:37:48.412Z,53.14
2018-01-27T06:40:14.627Z,53.11
2018-01-27T06:42:40.807Z,53.11
2018-01-27T06:45:07.008Z,53.07
2018-01-27T06:47:33.186Z,53.06
2018-01-27T06:49:59.397Z,53.05
2018-01-27T06:52:25.965Z,53.08
2018-01-27T06:54:52.532Z,53.09
2018-01-27T06:57:18.697Z,53.09
2018-01-27T06:59:44.897Z,53.06
2018-01-27T07:02:11.129Z,53.05
2018-01-27T07:04:37.369Z,53.02
2018-01-27T07:07:03.597Z,52.99
2018-01-27T07:09:29.819Z,53.02
2018-01-27T07:11:55.992Z,53.00
2018-01-27T07:14:22.164Z,53.05
2018-01-27T07:16:48.378Z,53.05
2018-01-27T07:19:14.799Z,53.07
2018-01-27T07:21:41.303Z,53.02
2018-01-27T07:24:07.854Z,53.03
2018-01-27T07:26:34.055Z,53.05
2018-01-27T07:29:00.340Z,53.05
2018-01-27T07:31:26.549Z,53.04
2018-01-27T07:33:52.731Z,53.04
2018-01-27T07:36:19.009Z,53.00
2018-01-27T07:38:45.531Z,52.98
2018-01-27T07:41:11.722Z,52.96
2018-01-27T07:43:37.973Z,52.96
2018-01-27T07:46:04.201Z,52.96
2018-01-27T07:48:30.388Z,52.94
2018-01-27T07:50:56.643Z,52.96
2018-01-27T07:53:22.893Z,52.93
2018-01-27T07:58:20.929Z,52.91
2018-01-27T08:00:47.145Z,52.84
2018-01-27T08:03:13.357Z,52.81
2018-01-27T08:05:39.599Z,52.81
2018-01-27T08:08:05.838Z,52.80
2018-01-27T08:10:32.067Z,52.82
2018-01-27T08:12:58.290Z,52.82
2018-01-27T08:15:24.488Z,52.78
2018-01-27T08:17:50.762Z,52.77
2018-01-27T08:20:17.190Z,52.77
2018-01-27T08:22:43.383Z,52.79
2018-01-27T08:25:09.585Z,52.78
2018-01-27T08:27:35.764Z,52.77
2018-01-27T08:30:02.014Z,52.77
2018-01-27T08:32:28.178Z,52.77
2018-01-27T08:34:54.352Z,52.77
2018-01-27T08:37:20.581Z,52.75
2018-01-27T08:39:46.783Z,52.74
2018-01-27T08:42:13.341Z,52.71
2018-01-27T08:44:39.549Z,52.71
2018-01-27T08:47:05.750Z,52.69
2018-01-27T08:49:31.960Z,52.70
2018-01-27T08:51:58.138Z,52.68
2018-01-27T08:54:24.598Z,52.69
2018-01-27T08:56:57.008Z,52.66
2018-01-27T08:59:23.194Z,52.63
2018-01-27T09:01:49.670Z,52.60
2018-01-27T09:04:15.989Z,52.58
2018-01-27T09:06:42.202Z,52.56
2018-01-27T09:09:08.435Z,52.54
2018-01-27T09:11:34.892Z,52.54
2018-01-27T09:14:01.188Z,52.57
2018-01-27T09:16:27.419Z,52.53
2018-01-27T09:18:53.596Z,52.52
2018-01-27T09:21:19.808Z,52.53
2018-01-27T09:23:46.061Z,52.52
2018-01-27T09:26:12.239Z,52.55
2018-01-27T09:28:38.540Z,52.55
2018-01-27T09:31:04.742Z,52.51
2018-01-27T09:33:30.968Z,52.50
2018-01-27T09:35:57.146Z,52.50
2018-01-27T09:38:23.341Z,52.49
2018-01-27T09:40:49.568Z,52.44
2018-01-27T09:43:15.746Z,52.44
2018-01-27T09:45:41.937Z,52.41
2018-01-27T09:48:08.161Z,52.37
2018-01-27T09:50:34.381Z,52.34
2018-01-27T09:53:00.550Z,52.32
2018-01-27T09:55:27.106Z,52.29
2018-01-27T09:57:53.349Z,52.22
2018-01-27T10:00:19.560Z,52.18
2018-01-27T10:02:45.782Z,52.15
2018-01-27T10:05:12.022Z,52.09
2018-01-27T10:07:38.205Z,52.09
2018-01-27T10:10:04.430Z,52.01
2018-01-27T10:12:31.004Z,51.97
2018-01-27T10:14:57.252Z,51.95
2018-01-27T10:17:23.458Z,51.92
2018-01-27T10:19:49.922Z,51.91
2018-01-27T10:22:16.200Z,51.81
2018-01-27T10:24:42.391Z,51.70
2018-01-27T10:27:08.987Z,51.65
2018-01-27T10:29:35.335Z,51.60
2018-01-27T10:32:01.591Z,51.51
2018-01-27T10:34:27.782Z,51.51
2018-01-27T10:36:54.313Z,51.47
2018-01-27T10:39:20.507Z,51.45
2018-01-27T10:41:47.016Z,51.40
2018-01-27T10:44:13.250Z,51.28
2018-01-27T10:46:39.428Z,51.27
2018-01-27T10:49:05.698Z,51.20
2018-01-27T10:51:31.922Z,51.14
2018-01-27T10:53:58.528Z,51.07
2018-01-27T10:56:24.946Z,50.97
2018-01-27T10:58:51.537Z,50.93
2018-01-27T11:01:17.753Z,50.87
2018-01-27T11:03:43.942Z,50.89
2018-01-27T11:06:10.170Z,50.95
2018-01-27T11:08:36.348Z,51.02
2018-01-27T11:11:02.586Z,51.07
2018-01-27T11:13:29.164Z,51.05
2018-01-27T11:15:55.386Z,50.98
2018-01-27T11:18:21.597Z,50.94
2018-01-27T11:20:47.837Z,50.93
2018-01-27T11:23:14.015Z,50.98
2018-01-27T11:25:40.514Z,51.05
2018-01-27T11:28:06.723Z,51.00
2018-01-27T11:30:33.278Z,51.03
2018-01-27T11:32:59.475Z,50.90
2018-01-27T11:35:25.756Z,50.88
2018-01-27T11:37:51.963Z,50.81
2018-01-27T11:40:18.148Z,50.75
2018-01-27T11:42:44.397Z,50.74
2018-01-27T11:45:10.580Z,50.71
2018-01-27T11:47:36.788Z,50.80
2018-01-27T11:50:03.410Z,50.78
2018-01-27T11:52:29.621Z,50.83
2018-01-27T11:54:55.818Z,50.84
2018-01-27T11:57:22.056Z,50.82
2018-01-27T11:59:48.498Z,50.81
2018-01-27T12:02:14.780Z,50.73
2018-01-27T12:04:41.082Z,50.75
2018-01-27T12:07:07.298Z,50.80
2018-01-27T12:09:33.574Z,50.83
2018-01-27T12:12:00.070Z,50.80
2018-01-27T12:14:26.237Z,50.78
2018-01-27T12:16:52.556Z,50.77
2018-01-27T12:19:18.740Z,50.71
2018-01-27T12:21:44.913Z,50.64
2018-01-27T12:24:11.141Z,50.59
2018-01-27T12:26:37.736Z,50.55
2018-01-27T12:29:04.285Z,50.53
2018-01-27T12:31:30.819Z,50.45
2018-01-27T12:33:57.662Z,50.40
2018-01-27T12:36:23.883Z,50.44
2018-01-27T12:38:50.079Z,50.33
2018-01-27T12:41:16.362Z,50.35
2018-01-27T12:43:42.555Z,50.42
2018-01-27T12:46:08.754Z,50.48
2018-01-27T12:48:35.010Z,50.45
2018-01-27T12:51:01.468Z,50.41
2018-01-27T12:53:27.636Z,50.35
2018-01-27T12:55:54.172Z,50.24
2018-01-27T12:58:20.340Z,50.24
2018-01-27T13:00:46.570Z,50.29
2018-01-27T13:03:12.799Z,50.26
2018-01-27T13:05:38.995Z,50.29
2018-01-27T13:08:05.191Z,50.27
2018-01-27T13:10:31.391Z,50.26
2018-01-27T13:12:57.578Z,50.25
2018-01-27T13:15:23.842Z,50.27
2018-01-27T13:17:50.034Z,50.26
2018-01-27T13:20:16.229Z,50.17
2018-01-27T13:22:42.736Z,50.19
2018-01-27T13:25:08.928Z,50.15
2018-01-27T13:27:35.111Z,50.08
2018-01-27T13:30:01.334Z,50.01
2018-01-27T13:32:27.858Z,50.04
2018-01-27T13:34:54.392Z,50.08
2018-01-27T13:37:20.631Z,50.02
2018-01-27T13:39:46.855Z,49.96
2018-01-27T13:42:13.042Z,50.00
2018-01-27T13:44:39.647Z,49.95
2018-01-27T13:47:05.841Z,50.00
2018-01-27T13:49:32.271Z,50.01
2018-01-27T13:51:58.809Z,50.03
2018-01-27T13:54:25.342Z,50.02
2018-01-27T13:56:51.517Z,50.07
2018-01-27T13:59:17.763Z,50.06
2018-01-27T14:01:43.946Z,50.10
2018-01-27T14:04:10.138Z,50.10
2018-01-27T14:06:36.368Z,49.99
2018-01-27T14:09:02.597Z,49.93
2018-01-27T14:11:28.790Z,49.99
2018-01-27T14:13:54.999Z,49.82
2018-01-27T14:16:21.495Z,49.62
2018-01-27T14:18:47.719Z,49.74
2018-01-27T14:21:13.908Z,49.82
2018-01-27T14:23:40.179Z,49.79
2018-01-27T14:26:06.726Z,49.63
2018-01-27T14:28:33.295Z,49.57
2018-01-27T14:30:59.539Z,49.49
2018-01-27T14:33:25.733Z,49.44
2018-01-27T14:35:51.959Z,49.41
2018-01-27T14:38:18.189Z,49.37
2018-01-27T14:40:44.385Z,49.37
2018-01-27T14:43:10.605Z,49.41
2018-01-27T14:45:36.788Z,49.40
2018-01-27T14:48:03.362Z,49.39
2018-01-27T14:50:29.921Z,49.47
2018-01-27T14:52:56.457Z,49.55
2018-01-27T14:55:22.723Z,49.50
2018-01-27T14:57:48.905Z,49.44
2018-01-27T15:00:15.103Z,49.46
2018-01-27T15:02:41.611Z,49.46
2018-01-27T15:05:07.833Z,49.57
2018-01-27T15:07:34.335Z,49.59
2018-01-27T15:10:00.599Z,49.46
2018-01-27T15:12:26.835Z,49.54
2018-01-27T15:14:53.333Z,49.61
2018-01-27T15:17:19.569Z,49.63
2018-01-27T15:19:51.986Z,49.65
2018-01-27T15:22:18.184Z,49.65
2018-01-27T15:24:44.383Z,49.69
2018-01-27T15:27:10.615Z,49.68
2018-01-27T15:29:36.831Z,49.68
2018-01-27T15:32:03.093Z,49.64
2018-01-27T15:34:29.303Z,49.63
2018-01-27T15:36:55.525Z,49.68
2018-01-27T15:39:21.711Z,49.66
2018-01-27T15:41:47.947Z,49.60
2018-01-27T15:44:14.147Z,49.65
2018-01-27T15:46:40.644Z,49.63
2018-01-27T15:49:07.180Z,49.65
2018-01-27T15:51:33.356Z,49.67
2018-01-27T15:53:59.844Z,49.68
2018-01-27T15:56:26.334Z,49.71
2018-01-27T15:58:52.807Z,49.75
2018-01-27T16:01:18.983Z,49.75
2018-01-27T16:03:45.175Z,49.77
2018-01-27T16:06:11.424Z,49.78
2018-01-27T16:08:38.367Z,49.83
2018-01-27T16:11:04.567Z,49.81
2018-01-27T16:13:30.747Z,49.86
2018-01-27T16:15:56.968Z,49.86
2018-01-27T16:18:23.147Z,49.89
2018-01-27T16:20:49.687Z,49.87
2018-01-27T16:23:15.910Z,49.89
2018-01-27T16:25:42.445Z,49.86
2018-01-27T16:28:08.693Z,49.79
2018-01-27T16:30:34.965Z,49.85
2018-01-27T16:33:01.213Z,49.81
2018-01-27T16:35:27.497Z,49.69
2018-01-27T16:37:53.746Z,49.74
2018-01-27T16:40:20.330Z,49.79
2018-01-27T16:42:46.905Z,49.83
2018-01-27T16:45:13.088Z,49.81
2018-01-27T16:47:39.295Z,49.78
2018-01-27T16:50:05.836Z,49.83
2018-01-27T16:52:32.022Z,49.85
2018-01-27T16:54:58.193Z,49.89
2018-01-27T16:57:24.405Z,49.84
2018-01-27T16:59:50.641Z,49.85
2018-01-27T17:02:16.898Z,49.84
2018-01-27T17:04:43.125Z,49.83
2018-01-27T17:07:09.597Z,49.87
2018-01-27T17:09:36.391Z,49.83
2018-01-27T17:12:02.698Z,49.79
2018-01-27T17:14:28.877Z,49.84
2018-01-27T17:16:55.133Z,49.64
2018-01-27T17:19:21.353Z,49.59
2018-01-27T17:21:47.547Z,49.66
2018-01-27T17:24:13.717Z,49.69
2018-01-27T17:26:39.956Z,49.69
2018-01-27T17:29:06.430Z,49.73
2018-01-27T17:31:32.625Z,49.60
2018-01-27T17:33:58.894Z,49.64
2018-01-27T17:36:25.079Z,49.53
2018-01-27T17:38:51.545Z,49.39
2018-01-27T17:41:18.166Z,49.44
2018-01-27T17:43:44.366Z,49.38
2018-01-27T17:46:10.544Z,49.44
2018-01-27T17:48:36.779Z,49.48
2018-01-27T17:51:03.051Z,49.54
2018-01-27T17:53:29.308Z,49.55
2018-01-27T17:55:55.857Z,49.60
2018-01-27T17:58:22.058Z,49.61
2018-01-27T18:00:48.305Z,49.62
2018-01-27T18:03:14.556Z,49.62
2018-01-27T18:05:40.767Z,49.51
2018-01-27T18:08:07.310Z,49.58
2018-01-27T18:10:33.888Z,49.66
2018-01-27T18:13:00.146Z,49.68
2018-01-27T18:15:26.601Z,49.65
2018-01-27T18:17:52.889Z,49.66
2018-01-27T18:20:19.092Z,49.75
2018-01-27T18:22:45.266Z,49.77
2018-01-27T18:25:11.590Z,49.78
2018-01-27T18:27:37.790Z,49.77
2018-01-27T18:30:03.995Z,49.74
2018-01-27T18:32:30.305Z,49.72
2018-01-27T18:34:56.596Z,49.70
2018-01-27T18:37:22.780Z,49.73
2018-01-27T18:39:49.289Z,49.72
2018-01-27T18:42:15.534Z,49.74
2018-01-27T18:44:41.746Z,49.71
2018-01-27T18:47:07.956Z,49.68
2018-01-27T18:49:34.458Z,49.59
2018-01-27T18:52:00.641Z,49.64
2018-01-27T18:54:27.177Z,49.67
2018-01-27T18:56:53.711Z,49.66
2018-01-27T18:59:19.900Z,49.63
2018-01-27T19:01:46.130Z,49.64
2018-01-27T19:04:12.599Z,49.64
2018-01-27T19:06:38.772Z,49.58
2018-01-27T19:09:05.337Z,49.61
2018-01-27T19:11:31.516Z,49.60
2018-01-27T19:13:57.676Z,49.58
2018-01-27T19:16:23.904Z,49.62
2018-01-27T19:18:50.089Z,49.62
2018-01-27T19:21:16.267Z,49.64
2018-01-27T19:23:42.833Z,49.58
2018-01-27T19:26:09.005Z,49.56
2018-01-27T19:28:35.492Z,49.57
2018-01-27T19:31:01.709Z,49.67
2018-01-27T19:33:27.945Z,49.62
2018-01-27T19:35:54.267Z,49.52
2018-01-27T19:38:20.453Z,49.55
2018-01-27T19:40:46.638Z,49.42
2018-01-27T19:43:12.925Z,49.39
2018-01-27T19:45:39.111Z,49.28
2018-01-27T19:48:05.634Z,49.28
2018-01-27T19:50:31.916Z,49.20
2018-01-27T19:52:58.096Z,49.18
2018-01-27T19:55:24.332Z,49.08
2018-01-27T19:57:50.733Z,49.05
2018-01-27T20:00:16.925Z,49.00
2018-01-27T20:02:43.161Z,49.01
2018-01-27T20:05:09.358Z,48.96
2018-01-27T20:07:35.598Z,48.96
2018-01-27T20:10:01.815Z,49.03
2018-01-27T20:12:28.080Z,49.02
2018-01-27T20:14:54.318Z,48.88
2018-01-27T20:17:20.521Z,48.87
2018-01-27T20:19:46.802Z,48.96
2018-01-27T20:22:12.983Z,49.00
2018-01-27T20:24:39.205Z,49.07
2018-01-27T20:27:05.451Z,49.00
2018-01-27T20:29:31.675Z,48.99
2018-01-27T20:31:58.139Z,48.97
2018-01-27T20:34:24.675Z,48.96
2018-01-27T20:36:51.190Z,48.97
2018-01-27T20:39:17.385Z,48.91
2018-01-27T20:41:43.983Z,48.95
2018-01-27T20:44:10.193Z,48.84
2018-01-27T20:46:36.408Z,48.82
2018-01-27T20:49:02.722Z,48.80
2018-01-27T20:51:28.982Z,48.80
2018-01-27T20:53:55.180Z,48.74
2018-01-27T20:56:21.653Z,48.64
2018-01-27T20:58:47.938Z,48.78
2018-01-27T21:01:14.223Z,48.71
2018-01-27T21:03:40.433Z,48.76
2018-01-27T21:06:06.622Z,48.66
2018-01-27T21:08:32.855Z,48.69
2018-01-27T21:10:59.053Z,48.68
2018-01-27T21:13:25.242Z,48.64
2018-01-27T21:15:51.515Z,48.65
2018-01-27T21:18:17.696Z,48.68
2018-01-27T21:20:43.942Z,48.83
2018-01-27T21:23:10.156Z,48.77
2018-01-27T21:25:36.358Z,48.75
2018-01-27T21:28:02.627Z,48.76
2018-01-27T21:30:28.807Z,48.78
2018-01-27T21:32:54.982Z,48.73
2018-01-27T21:35:21.204Z,48.76
2018-01-27T21:37:47.398Z,48.79
2018-01-27T21:40:13.636Z,48.85
2018-01-27T21:42:39.838Z,48.96
2018-01-27T21:45:06.011Z,48.93
2018-01-27T21:47:32.235Z,48.98
2018-01-27T21:49:58.424Z,48.98
2018-01-27T21:52:24.627Z,48.92
2018-01-27T21:54:50.840Z,48.91
2018-01-27T21:57:17.094Z,48.93
2018-01-27T21:59:43.278Z,48.93
2018-01-27T22:02:09.495Z,48.98
2018-01-27T22:04:35.708Z,49.00
2018-01-27T22:07:01.888Z,49.00
2018-01-27T22:09:28.050Z,49.02
2018-01-27T22:11:54.323Z,48.99
2018-01-27T22:14:20.540Z,48.95
2018-01-27T22:16:46.718Z,48.88
2018-01-27T22:19:12.941Z,48.88
2018-01-27T22:21:39.155Z,48.91
2018-01-27T22:24:05.371Z,48.91
2018-01-27T22:26:31.585Z,48.87
2018-01-27T22:28:57.736Z,48.89
2018-01-27T22:31:24.021Z,48.84
2018-01-27T22:33:50.217Z,48.84
2018-01-27T22:36:16.530Z,48.83
2018-01-27T22:38:43.068Z,48.81
2018-01-27T22:41:09.569Z,48.78
2018-01-27T22:43:35.738Z,48.84
2018-01-27T22:46:01.959Z,48.72
2018-01-27T22:48:28.190Z,48.83
2018-01-27T22:50:54.369Z,48.76
2018-01-27T22:53:20.617Z,48.71
2018-01-27T22:55:46.853Z,48.69
2018-01-27T22:58:13.061Z,48.62
2018-01-27T23:00:39.373Z,48.57
2018-01-27T23:03:05.587Z,48.58
2018-01-27T23:05:31.793Z,48.66
2018-01-27T23:07:58.063Z,48.62
2018-01-27T23:10:24.505Z,48.60
2018-01-27T23:12:51.150Z,48.59
2018-01-27T23:15:17.394Z,48.61
2018-01-27T23:17:43.906Z,48.52
2018-01-27T23:20:10.205Z,48.59
2018-01-27T23:22:36.470Z,48.52
2018-01-27T23:25:02.898Z,48.51
2018-01-27T23:27:29.333Z,48.52
2018-01-27T23:29:55.761Z,48.54
2018-01-27T23:32:21.950Z,48.44
2018-01-27T23:34:48.167Z,48.49
2018-01-27T23:37:14.386Z,48.47
2018-01-27T23:39:40.606Z,48.59
2018-01-27T23:42:07.189Z,48.51
2018-01-27T23:44:33.753Z,48.45
2018-01-27T23:46:59.945Z,48.44
2018-01-27T23:49:26.452Z,48.43
2018-01-27T23:51:52.658Z,48.40
2018-01-27T23:54:18.824Z,48.44
2018-01-27T23:56:45.076Z,48.34
2018-01-27T23:59:11.271Z,48.40
